Lake Bronson, Minnesota
Current Conditions -  °F | °C
As of 11:15 AM on Friday 19 Dec 2014 (Local Time) from KHCO Reporting Station
Haze Haze  
Wind Chill: 16°   Ceiling: 400
Heat Index: 27°   Visibility: 2mi
Dew Point: 25°   Wind: 12mph
Humidity: 93%   Direction: 160°SSE
Pressure: 30.06"   Gusts: NA
Location:  48.74°N, 96.66°W
Report Text: KHCO 191715Z AUTO 16010KT 2SM BR OVC004 M03/M04 A3006 RMK AO2
Loading
Personal Weather Stations






























Interactive Weather Map New forecast layout! Learn more

10-Day Weather Forecast

Advertisements
Track Severe Weather on mobile